Flight Track Log - Related Links

Times and Time Zones

All times are in EDT time to prevent confusion due to time zone crossing. See the SWA267 flight status page for this flight to view local times or setup timezone preferences in your user account.

Time Position Orientation Groundspeed Altitude Reporting Facility
EDT Latitude Longitude Course Direction KTS MPH feet Rate Location/Type
Mon 12:24:23 PM 36.9244 -76.1764 29° Northeast 177 204 1,500  Level Washington Center
Mon 12:25:18 PM 36.9828 -76.1822 355° North 293 337 2,800 2,035 Climbing Washington Center
Mon 12:26:18 PM 37.0011 -76.2758 284° West 277 319 5,400 2,719 Climbing Washington Center
Mon 12:27:26 PM 37.0067 -76.3747 274° West 288 331 8,600 2,719 Climbing Washington Center
Mon 12:28:26 PM 37.0436 -76.4661 297° West 289 333 11,200 2,500 Climbing Washington Center
Mon 12:29:26 PM 37.0889 -76.5708 298° West 307 353 13,600 2,350 Climbing Washington Center
Mon 12:30:26 PM 37.1378 -76.6808 299° West 335 386 15,900 1,650 Climbing Washington Center
Mon 12:31:26 PM 37.1869 -76.7911 299° West 356 410 16,900 550 Climbing Washington Center
Mon 12:32:26 PM 37.2358 -76.9067 298° West 369 425 17,000  Climbing Washington Center
Mon 12:33:26 PM 37.2906 -77.0356 298° West 380 437 16,900 -50 Descending Washington Center
Mon 12:34:26 PM 37.3417 -77.1356 303° West 372 428 16,900  Level Washington Center
Mon 12:35:26 PM 37.4197 -77.2236 318° Northwest 372 428 16,900  Level Washington Center
Mon 12:36:26 PM 37.5061 -77.3144 320° Northwest 366 421 16,900 -500 Level Washington Center
Mon 12:37:26 PM 37.6144 -77.3064 North 350 403 15,900 -1,000 Descending Washington Center
Mon 12:38:26 PM 37.7214 -77.2800 11° North 360 414 14,900 -500 Descending Washington Center
Mon 12:39:26 PM 37.8239 -77.2558 11° North 367 422 14,900 -450 Level Washington Center
Mon 12:40:26 PM 37.9264 -77.2344 North 367 422 14,000 -1,000 Descending Washington Center
Mon 12:41:26 PM 38.0267 -77.2156 North 367 422 12,900 -1,000 Descending Washington Center
Mon 12:42:26 PM 38.1167 -77.1939 11° North 367 422 12,000 -450 Descending Washington Center
Mon 12:43:26 PM 38.2128 -77.1747 North 362 417 12,000  Level Washington Center
Mon 12:44:26 PM 38.3153 -77.1531 North 350 403 12,000  Level Washington Center
Mon 12:45:26 PM 38.3906 -77.1308 13° North 328 377 12,000  Level Washington Center
Mon 12:46:26 PM 38.4647 -77.0394 44° Northeast 316 364 12,000  Level Washington Center
Mon 12:47:26 PM 38.5344 -76.9533 44° Northeast 328 377 12,000 -650 Level Washington Center
Mon 12:48:26 PM 38.6042 -76.8722 42° Northeast 338 389 10,700 -1,050 Descending Washington Center
Mon 12:49:26 PM 38.6675 -76.7936 44° Northeast 333 383 9,900 -900 Descending Washington Center
Mon 12:50:26 PM 38.7206 -76.7119 50° Northeast 312 359 8,900 -1,296 Descending Washington Center
Mon 12:51:31 PM 38.7667 -76.6167 58° Northeast 293 337 7,200 -1,392 Descending Potomac TRACON
Mon 12:52:31 PM 38.8167 -76.5333 52° Northeast 289 333 6,000 -950 Descending Potomac TRACON
Mon 12:53:31 PM 38.8833 -76.5500 349° North 291 335 5,300 -850 Descending Potomac TRACON
Mon 12:54:31 PM 38.9667 -76.6000 335° Northwest 286 329 4,300 -684 Descending Potomac TRACON
Mon 12:55:25 PM 39.0000 -76.6667 303° West 280 322 4,000 -474 Descending Potomac TRACON
Mon 12:56:25 PM 39.0333 -76.7333 303° West 237 273 3,400 -571 Descending Potomac TRACON
Mon 12:57:31 PM 39.1000 -76.8000 322° Northwest 230 265 2,800 -600 Descending Potomac TRACON
Mon 12:58:25 PM 39.1500 -76.8167 346° North 245 282 2,200 -678 Descending Potomac TRACON
Mon 12:59:26 PM 39.1833 -76.7833 38° Northeast 204 235 1,500 -694 Descending Potomac TRACON
Mon 01:00:26 PM 39.1833 -76.7333 90° East 131 151 800 -700 Descending Potomac TRACON
Mon 01:02:00 PM 39.1667 -76.6667 100° East  Level FlightAware Approximate
Mon 01:09:00 PM 39.1754 -76.6683 100° East  Level Estimated
Mon 01:10:00 PM 39.1754 -76.6683 100° East  Level Estimated
Mon 01:11:00 PM 39.1754 -76.6683 100° East  Level Estimated

Login

Don't have an account? Register now (free) for customized features, flight alerts, and more!